createdAt,value
2018-12-23T00:01:42.843Z,11.4
2018-12-23T00:07:06.106Z,11.9
2018-12-23T00:12:39.350Z,11.6
2018-12-23T00:18:13.239Z,11.4
2018-12-23T00:23:45.240Z,11.6
2018-12-23T00:29:08.043Z,10
2018-12-23T00:34:40.984Z,10.1
2018-12-23T00:40:14.011Z,9
2018-12-23T00:45:47.422Z,8.4
2018-12-23T00:51:19.531Z,8
2018-12-23T00:56:52.302Z,8
2018-12-23T01:02:23.932Z,8.1
2018-12-23T01:07:46.757Z,8.6
2018-12-23T01:13:18.740Z,8.5
2018-12-23T01:18:50.604Z,8.2
2018-12-23T01:24:13.323Z,8.5
2018-12-23T01:29:37.025Z,8.4
2018-12-23T01:34:59.690Z,8.8
2018-12-23T01:40:31.671Z,7.5
2018-12-23T01:45:54.536Z,8
2018-12-23T01:51:17.390Z,8.1
2018-12-23T01:56:40.153Z,8.9
2018-12-23T02:02:03.777Z,9.7
2018-12-23T02:07:26.655Z,10
2018-12-23T02:12:58.480Z,11
2018-12-23T02:18:21.254Z,10
2018-12-23T02:23:54.163Z,10.5
2018-12-23T02:29:26.182Z,11.2
2018-12-23T02:34:48.882Z,11.1
2018-12-23T02:40:11.578Z,10.3
2018-12-23T02:45:34.355Z,10
2018-12-23T02:50:57.049Z,8.7
2018-12-23T02:56:19.766Z,9.4
2018-12-23T03:01:43.226Z,8.5
2018-12-23T03:07:05.978Z,8.3
2018-12-23T03:12:28.717Z,8.3
2018-12-23T03:17:51.435Z,7.5
2018-12-23T03:23:14.160Z,7.3
2018-12-23T03:28:36.884Z,6.9
2018-12-23T03:34:08.664Z,6.6
2018-12-23T03:39:31.477Z,6.4
2018-12-23T03:44:54.391Z,6.5
2018-12-23T03:50:17.134Z,6.2
2018-12-23T03:55:39.881Z,6.3
2018-12-23T04:01:03.169Z,6.1
2018-12-23T04:06:25.928Z,6.3
2018-12-23T04:11:48.694Z,6.3
2018-12-23T04:17:11.432Z,5.6
2018-12-23T04:22:35.006Z,6
2018-12-23T04:27:57.873Z,5.6
2018-12-23T04:33:21.418Z,6.1
2018-12-23T04:38:44.086Z,6.7
2018-12-23T04:44:06.780Z,6.8
2018-12-23T04:49:29.623Z,6.1
2018-12-23T04:54:52.662Z,7
2018-12-23T05:00:15.376Z,7.1
2018-12-23T05:05:38.154Z,7.6
2018-12-23T05:11:01.541Z,8.7
2018-12-23T05:16:24.227Z,9.2
2018-12-23T05:21:47.085Z,10.1
2018-12-23T05:27:09.835Z,10.3
2018-12-23T05:32:32.999Z,11.5
2018-12-23T05:37:55.979Z,12.4
2018-12-23T05:43:18.788Z,13.8
2018-12-23T05:48:50.932Z,15.5
2018-12-23T05:54:13.643Z,16.4
2018-12-23T05:59:46.240Z,17.799999
2018-12-23T06:05:09.204Z,19
2018-12-23T06:10:32.936Z,19
2018-12-23T06:15:55.658Z,19.799999
2018-12-23T06:21:28.617Z,21.1
2018-12-23T06:26:51.371Z,22.9
2018-12-23T06:32:14.078Z,23
2018-12-23T06:37:36.779Z,22.6
2018-12-23T06:42:59.876Z,22.700001
2018-12-23T06:48:22.605Z,20.6
2018-12-23T06:53:55.868Z,22
2018-12-23T06:59:18.782Z,21.1
2018-12-23T07:04:41.573Z,21.9
2018-12-23T07:10:14.018Z,21.700001
2018-12-23T07:15:37.909Z,21
2018-12-23T07:21:30.325Z,20.4
2018-12-23T07:26:53.173Z,20.5
2018-12-23T07:32:15.905Z,21
2018-12-23T07:37:47.830Z,21.299999
2018-12-23T07:43:21.288Z,22.299999
2018-12-23T07:48:43.915Z,22
2018-12-23T07:54:07.513Z,22
2018-12-23T07:59:30.233Z,23.6
2018-12-23T08:04:53.101Z,22.4
2018-12-23T08:10:15.994Z,23.4
2018-12-23T08:15:38.647Z,22.799999
2018-12-23T08:21:01.483Z,21.9
2018-12-23T08:26:24.304Z,22.200001
2018-12-23T08:31:48.682Z,22.4
2018-12-23T08:37:10.858Z,22.5
2018-12-23T08:42:33.577Z,22.5
2018-12-23T08:48:06.058Z,22.799999
2018-12-23T08:53:29.154Z,22.799999
2018-12-23T08:58:51.991Z,23.299999
2018-12-23T09:04:15.242Z,22.6
2018-12-23T09:09:37.983Z,23.5
2018-12-23T09:15:00.689Z,21.6
2018-12-23T09:20:23.912Z,22
2018-12-23T09:25:46.606Z,22.1
2018-12-23T09:31:09.729Z,21.700001
2018-12-23T09:36:41.365Z,22.4
2018-12-23T09:42:04.115Z,21.200001
2018-12-23T09:47:27.226Z,20.700001
2018-12-23T09:52:49.904Z,20.299999
2018-12-23T09:58:12.934Z,22.4
2018-12-23T10:03:35.743Z,21.799999
2018-12-23T10:08:58.634Z,21.700001
2018-12-23T10:14:21.474Z,22.4
2018-12-23T10:19:44.144Z,22.799999
2018-12-23T10:25:07.026Z,22.799999
2018-12-23T10:30:29.900Z,21.299999
2018-12-23T10:35:52.618Z,22.4
2018-12-23T10:41:15.428Z,22.6
2018-12-23T10:46:38.325Z,22.5
2018-12-23T10:51:59.996Z,23.1
2018-12-23T10:57:22.785Z,22.200001
2018-12-23T11:02:46.133Z,22.4
2018-12-23T11:08:08.990Z,22.1
2018-12-23T11:13:31.907Z,21.700001
2018-12-23T11:18:54.564Z,22.299999
2018-12-23T11:24:17.378Z,21.5
2018-12-23T11:29:40.202Z,21.799999
2018-12-23T11:35:03.282Z,21.700001
2018-12-23T11:40:26.040Z,22.200001
2018-12-23T11:45:48.713Z,21.799999
2018-12-23T11:51:11.537Z,23
2018-12-23T11:56:34.370Z,22.299999
2018-12-23T12:01:57.260Z,23.200001
2018-12-23T12:07:20.803Z,23.200001
2018-12-23T12:12:43.361Z,22.9
2018-12-23T12:18:06.905Z,20.5
2018-12-23T12:23:29.602Z,17.700001
2018-12-23T12:28:52.292Z,14.1
2018-12-23T12:34:15.017Z,13.2
2018-12-23T12:39:47.080Z,12.4
2018-12-23T12:45:10.005Z,11.3
2018-12-23T12:50:32.807Z,9.2
2018-12-23T12:55:55.601Z,8
2018-12-23T13:01:18.453Z,7.8
2018-12-23T13:06:52.935Z,8.9
2018-12-23T13:12:26.135Z,8.9
2018-12-23T13:17:49.138Z,9.3
2018-12-23T13:23:21.449Z,8.8
2018-12-23T13:28:44.364Z,7.8
2018-12-23T13:34:07.047Z,8
2018-12-23T13:39:29.859Z,8.6
2018-12-23T13:45:01.692Z,8
2018-12-23T13:50:24.454Z,7.8
2018-12-23T13:55:47.288Z,8
2018-12-23T14:01:10.157Z,7.8
2018-12-23T14:06:32.926Z,8.6
2018-12-23T14:11:55.657Z,9.7
2018-12-23T14:17:18.462Z,10.5
2018-12-23T14:22:41.322Z,9.6
2018-12-23T14:28:05.634Z,9.3
2018-12-23T14:33:27.673Z,9.6
2018-12-23T14:38:51.192Z,10.3
2018-12-23T14:44:14.608Z,9.4
2018-12-23T14:49:46.908Z,9
2018-12-23T14:55:09.756Z,9.9
2018-12-23T15:00:32.443Z,10.8
2018-12-23T15:05:55.109Z,11.7
2018-12-23T15:11:17.846Z,12.8
2018-12-23T15:16:40.546Z,12.4
2018-12-23T15:22:03.432Z,13.6
2018-12-23T15:27:26.900Z,14.7
2018-12-23T15:33:00.385Z,14.1
2018-12-23T15:38:32.945Z,16.5
2018-12-23T15:43:55.818Z,17.1
2018-12-23T15:49:28.920Z,18.200001
2018-12-23T15:55:01.937Z,15.9
2018-12-23T16:00:35.455Z,17.1
2018-12-23T16:06:34.026Z,22.799999
2018-12-23T16:11:56.781Z,23.200001
2018-12-23T16:17:22.448Z,21.1
2018-12-23T16:23:13.354Z,19.6
2018-12-23T16:28:36.259Z,17.6
2018-12-23T16:34:08.522Z,19
2018-12-23T16:39:41.725Z,18
2018-12-23T16:45:04.618Z,18.200001
2018-12-23T16:50:37.135Z,18.799999
2018-12-23T16:55:59.959Z,18.700001
2018-12-23T17:01:33.731Z,21.1
2018-12-23T17:06:57.411Z,19.6
2018-12-23T17:12:20.107Z,18.200001
2018-12-23T17:17:43.037Z,15.5
2018-12-23T17:23:05.840Z,16.9
2018-12-23T17:28:28.707Z,13.5
2018-12-23T17:34:00.874Z,14
2018-12-23T17:39:23.987Z,13.4
2018-12-23T17:44:55.825Z,17.200001
2018-12-23T17:50:18.623Z,16.799999
2018-12-23T17:55:41.498Z,12.8
2018-12-23T18:01:14.425Z,12.5
2018-12-23T18:06:37.123Z,12.4
2018-12-23T18:12:09.533Z,12.9
2018-12-23T18:17:43.105Z,14.4
2018-12-23T18:23:16.995Z,14.1
2018-12-23T18:28:39.687Z,16.9
2018-12-23T18:34:14.060Z,23.299999
2018-12-23T18:39:36.830Z,16.299999
2018-12-23T18:44:59.708Z,17.6
2018-12-23T18:50:32.435Z,17.9
2018-12-23T18:56:04.515Z,15.4
2018-12-23T19:01:28.080Z,19.299999
2018-12-23T19:06:59.790Z,16.4
2018-12-23T19:12:22.540Z,19.6
2018-12-23T19:17:45.423Z,20
2018-12-23T19:23:08.667Z,21.6
2018-12-23T19:28:44.332Z,21.5
2018-12-23T19:34:07.147Z,24.4
2018-12-23T19:39:29.945Z,23.299999
2018-12-23T19:45:03.078Z,21
2018-12-23T19:50:26.378Z,20.200001
2018-12-23T19:55:49.073Z,21.200001
2018-12-23T20:01:22.152Z,22.799999
2018-12-23T20:06:44.934Z,22.200001
2018-12-23T20:12:07.646Z,25.6
2018-12-23T20:17:39.703Z,23.700001
2018-12-23T20:23:02.410Z,16
2018-12-23T20:28:25.194Z,10.7
2018-12-23T20:33:57.540Z,6.5
2018-12-23T20:39:30.449Z,6.6
2018-12-23T20:44:53.224Z,5
2018-12-23T20:50:25.402Z,4.1
2018-12-23T20:55:48.288Z,4.6
2018-12-23T21:01:22.057Z,2.9
2018-12-23T21:06:44.961Z,2.8
2018-12-23T21:12:17.825Z,3.1
2018-12-23T21:17:40.913Z,2.6
2018-12-23T21:23:03.642Z,2.8
2018-12-23T21:28:26.372Z,3
2018-12-23T21:33:49.381Z,2.9
2018-12-23T21:39:12.157Z,3.1
2018-12-23T21:44:34.977Z,2.9
2018-12-23T21:49:58.538Z,2.4
2018-12-23T21:55:22.316Z,2.5
2018-12-23T22:00:45.070Z,3.2
2018-12-23T22:06:08.562Z,4.1
2018-12-23T22:11:33.156Z,5
2018-12-23T22:16:55.106Z,5.8
2018-12-23T22:22:17.778Z,6.4
2018-12-23T22:27:41.315Z,6.9
2018-12-23T22:33:03.946Z,6.5
2018-12-23T22:38:26.734Z,6.5
2018-12-23T22:43:49.525Z,6.1
2018-12-23T22:49:12.228Z,7.1
2018-12-23T22:54:35.155Z,8.4
2018-12-23T23:00:10.512Z,9.2
2018-12-23T23:05:33.359Z,10
2018-12-23T23:10:56.062Z,9.1
2018-12-23T23:16:18.985Z,7.4
2018-12-23T23:21:41.698Z,6.7
2018-12-23T23:27:13.470Z,6.8
2018-12-23T23:32:37.295Z,7.3
2018-12-23T23:38:10.546Z,7.7
2018-12-23T23:43:33.474Z,8.7
2018-12-23T23:48:56.545Z,10.3
2018-12-23T23:54:19.289Z,10.5
2018-12-23T23:59:41.972Z,8.3
